Time;durP1;ratioP1;P1;durP2;ratioP2;P2;SDS_P1;SDS_P2;PMS_P1;PMS_P2;Temp;Humidity;BMP_temperature;BMP_pressure;BME280_temperature;BME280_humidity;BME280_pressure;Samples;Min_cycle;Max_cycle;Signal;HPM_P1;HPM_P2
2022/09/24 00:01:59;;;;;;;17.37;15.97;;;11.00;99.90;;;;;;5063048;28;20540;-82
2022/09/24 00:04:26;;;;;;;17.63;16.13;;;11.00;99.90;;;;;;5060740;28;20198;-82
2022/09/24 00:06:53;;;;;;;13.87;12.73;;;11.10;99.90;;;;;;5061826;28;20683;-80
2022/09/24 00:09:20;;;;;;;13.67;12.47;;;11.00;99.90;;;;;;5070098;28;20238;-80
2022/09/24 00:11:48;;;;;;;14.43;13.23;;;11.00;99.90;;;;;;5068873;28;20182;-82
2022/09/24 00:14:16;;;;;;;14.20;13.00;;;11.00;99.90;;;;;;5066412;28;20186;-82
2022/09/24 00:16:43;;;;;;;13.17;12.07;;;10.90;99.90;;;;;;5061023;28;20728;-82
2022/09/24 00:19:11;;;;;;;13.83;12.67;;;10.90;99.90;;;;;;5059571;28;20313;-82
2022/09/24 00:21:38;;;;;;;13.77;12.60;;;11.00;99.90;;;;;;5057873;28;20185;-82
2022/09/24 00:27:07;;;;;;;13.90;12.60;;;11.00;99.90;;;;;;5061055;28;20181;-80
2022/09/24 00:29:34;;;;;;;19.03;17.43;;;11.10;99.90;;;;;;5059405;28;20175;-81
2022/09/24 00:32:01;;;;;;;23.13;21.53;;;11.00;99.90;;;;;;5057379;28;20265;-80
2022/09/24 00:34:28;;;;;;;18.40;16.90;;;11.00;99.90;;;;;;5054426;28;20190;-81
2022/09/24 00:36:54;;;;;;;15.10;14.13;;;11.00;99.90;;;;;;5054369;28;20206;-81
2022/09/24 00:39:19;;;;;;;16.20;15.17;;;11.10;99.90;;;;;;5055203;28;20179;-80
2022/09/24 00:41:48;;;;;;;14.63;13.33;;;11.10;99.90;;;;;;5055807;28;20190;-79
2022/09/24 00:44:39;;;;;;;14.67;13.30;;;11.10;99.90;;;;;;5056258;28;20216;-80
2022/09/24 00:47:12;;;;;;;13.57;12.57;;;11.10;99.90;;;;;;5056315;28;20188;-81
2022/09/24 00:49:39;;;;;;;15.30;13.80;;;11.10;99.90;;;;;;5057967;28;20191;-81
2022/09/24 00:52:05;;;;;;;16.00;14.17;;;11.10;99.90;;;;;;5055990;28;20185;-81
2022/09/24 00:54:32;;;;;;;13.43;12.40;;;11.20;99.90;;;;;;5054472;28;20189;-81
2022/09/24 00:57:00;;;;;;;14.23;12.93;;;11.10;99.90;;;;;;5054347;28;20624;-81
2022/09/24 00:59:27;;;;;;;14.43;13.30;;;11.20;99.90;;;;;;5056703;28;20201;-80
2022/09/24 01:01:56;;;;;;;14.77;13.67;;;11.10;99.90;;;;;;5056065;28;20605;-81
2022/09/24 01:04:23;;;;;;;14.97;13.63;;;11.00;99.90;;;;;;5055214;28;20231;-81
2022/09/24 01:06:49;;;;;;;14.70;13.47;;;11.00;99.90;;;;;;5054014;28;20217;-81
2022/09/24 01:09:17;;;;;;;13.73;12.13;;;10.90;99.90;;;;;;5053624;28;20177;-80
2022/09/24 01:12:33;;;;;;;12.73;11.77;;;10.90;99.90;;;;;;5054614;28;20547;-79
2022/09/24 01:15:18;;;;;;;11.70;10.80;;;10.80;99.90;;;;;;5051884;28;20305;-80
2022/09/24 01:18:08;;;;;;;13.07;11.93;;;10.80;99.90;;;;;;5056205;28;20179;-81
2022/09/24 01:20:46;;;;;;;14.13;12.97;;;10.80;99.90;;;;;;5058964;28;20185;-81
2022/09/24 01:23:42;;;;;;;14.60;13.60;;;10.80;99.90;;;;;;5062692;28;20208;-80
2022/09/24 01:26:27;;;;;;;13.77;12.67;;;10.70;99.90;;;;;;5064650;28;20210;-79
2022/09/24 01:29:21;;;;;;;14.67;13.63;;;10.70;99.90;;;;;;5062965;28;20193;-82
2022/09/24 01:32:05;;;;;;;15.13;13.83;;;10.70;99.90;;;;;;5076152;28;20162;-78
2022/09/24 01:34:49;;;;;;;13.83;12.83;;;10.70;99.90;;;;;;5059537;28;20193;-77
2022/09/24 01:37:19;;;;;;;14.37;13.27;;;10.60;99.90;;;;;;5054598;28;20731;-79
2022/09/24 01:39:47;;;;;;;16.83;15.60;;;10.50;99.90;;;;;;5059922;28;20190;-81
2022/09/24 01:42:15;;;;;;;18.50;17.03;;;10.40;99.90;;;;;;5061158;28;20717;-81
2022/09/24 01:44:43;;;;;;;22.90;21.13;;;10.30;99.90;;;;;;5054429;28;20264;-80
2022/09/24 01:47:15;;;;;;;37.10;34.83;;;10.20;99.90;;;;;;5054710;28;20232;-81
2022/09/24 01:49:40;;;;;;;30.87;28.97;;;10.20;99.90;;;;;;5055651;28;20184;-81
2022/09/24 01:52:11;;;;;;;31.37;29.27;;;10.10;99.90;;;;;;5053678;28;20646;-81
2022/09/24 01:54:41;;;;;;;28.23;26.07;;;10.10;99.90;;;;;;5053782;28;20178;-79
2022/09/24 01:57:13;;;;;;;28.13;26.33;;;10.00;99.90;;;;;;5054346;28;20794;-81
2022/09/24 01:59:54;;;;;;;22.80;21.20;;;9.90;99.90;;;;;;5053327;28;20434;-82
2022/09/24 02:02:27;;;;;;;22.20;20.53;;;9.90;99.90;;;;;;5052178;28;20273;-81
2022/09/24 02:05:17;;;;;;;21.83;20.23;;;9.90;99.90;;;;;;5052464;28;20220;-81
2022/09/24 02:08:05;;;;;;;21.30;20.00;;;9.80;99.90;;;;;;5052512;28;20179;-80
2022/09/24 02:10:38;;;;;;;16.53;15.23;;;9.80;99.90;;;;;;5052171;28;20182;-81
2022/09/24 02:13:09;;;;;;;13.50;12.40;;;9.80;99.90;;;;;;5052001;28;20178;-79
2022/09/24 02:15:40;;;;;;;13.80;12.60;;;9.70;99.90;;;;;;5051027;28;20210;-81
2022/09/24 02:18:10;;;;;;;13.93;12.73;;;9.60;99.90;;;;;;5052717;28;20230;-81
2022/09/24 02:20:40;;;;;;;13.73;12.73;;;9.60;99.90;;;;;;5050988;28;20248;-81
2022/09/24 02:23:09;;;;;;;15.57;14.27;;;9.50;99.90;;;;;;5052784;28;20190;-80
2022/09/24 02:25:49;;;;;;;14.73;13.43;;;9.50;99.90;;;;;;5051999;28;20359;-81
2022/09/24 02:28:18;;;;;;;13.27;12.17;;;9.40;99.90;;;;;;5057736;28;20193;-81
2022/09/24 02:30:50;;;;;;;11.93;10.93;;;9.40;99.90;;;;;;5052680;28;20182;-81
2022/09/24 02:36:02;;;;;;;12.53;11.43;;;9.40;99.90;;;;;;5055099;28;20209;-81
2022/09/24 02:38:28;;;;;;;12.90;11.67;;;9.40;99.90;;;;;;5053699;28;20186;-81
2022/09/24 02:40:54;;;;;;;13.50;12.47;;;9.40;99.90;;;;;;5053178;28;20191;-81
2022/09/24 02:43:20;;;;;;;14.67;13.40;;;9.30;99.90;;;;;;5057198;28;20964;-80
2022/09/24 02:45:45;;;;;;;14.77;13.27;;;9.30;99.90;;;;;;5058497;28;20212;-81
2022/09/24 02:48:12;;;;;;;14.70;13.50;;;9.30;99.90;;;;;;5057619;28;20178;-81
2022/09/24 02:50:38;;;;;;;15.30;13.80;;;9.30;99.90;;;;;;5056327;28;20551;-79
2022/09/24 02:53:03;;;;;;;14.87;13.57;;;9.30;99.90;;;;;;5055755;28;20177;-81
2022/09/24 02:55:30;;;;;;;14.40;13.10;;;9.40;99.90;;;;;;5055847;28;20709;-81
2022/09/24 02:57:56;;;;;;;14.07;12.73;;;9.50;99.90;;;;;;5055507;28;20182;-81
2022/09/24 03:00:22;;;;;;;13.67;12.57;;;9.50;99.90;;;;;;5056850;28;20182;-81
2022/09/24 03:02:49;;;;;;;14.60;12.93;;;9.50;99.90;;;;;;5059619;28;20255;-79
2022/09/24 03:05:17;;;;;;;14.93;13.63;;;9.60;99.90;;;;;;5059206;28;20431;-81
2022/09/24 03:07:44;;;;;;;15.77;14.47;;;9.70;99.90;;;;;;5059063;28;20198;-81
2022/09/24 03:10:10;;;;;;;15.03;14.00;;;9.70;99.90;;;;;;5060639;28;20189;-81
2022/09/24 03:12:36;;;;;;;14.83;13.73;;;9.70;99.90;;;;;;5059098;28;20176;-81
2022/09/24 03:15:03;;;;;;;14.20;12.90;;;9.70;99.90;;;;;;5061816;28;20206;-81
2022/09/24 03:17:29;;;;;;;15.70;14.53;;;9.80;99.90;;;;;;5057674;28;20189;-79
2022/09/24 03:19:55;;;;;;;15.70;14.33;;;9.80;99.90;;;;;;5054429;28;20575;-79
2022/09/24 03:22:21;;;;;;;14.70;13.60;;;9.90;99.90;;;;;;5055120;28;20200;-79
2022/09/24 03:24:47;;;;;;;16.53;15.13;;;9.90;99.90;;;;;;5054607;28;20780;-78
2022/09/24 03:27:13;;;;;;;22.27;20.77;;;9.90;99.90;;;;;;5054608;28;20182;-79
2022/09/24 03:32:23;;;;;;;50.10;46.87;;;9.90;99.90;;;;;;5058618;28;20193;-81
2022/09/24 03:34:49;;;;;;;38.17;35.97;;;9.90;99.90;;;;;;5058458;28;20176;-81
2022/09/24 03:37:15;;;;;;;34.63;32.57;;;9.90;99.90;;;;;;5064760;28;20253;-80
2022/09/24 03:39:40;;;;;;;30.17;28.17;;;10.00;99.90;;;;;;5059719;28;20178;-80
2022/09/24 03:42:06;;;;;;;32.30;30.37;;;9.90;99.90;;;;;;5069375;28;20244;-78
2022/09/24 03:44:32;;;;;;;38.27;36.00;;;10.00;99.90;;;;;;5059957;28;20206;-80
2022/09/24 03:46:58;;;;;;;54.53;51.43;;;10.00;99.90;;;;;;5058869;28;20205;-80
2022/09/24 03:49:24;;;;;;;57.83;54.73;;;10.00;99.90;;;;;;5057770;28;20261;-79
2022/09/24 03:51:50;;;;;;;52.83;49.87;;;10.00;99.90;;;;;;5057115;28;20214;-78
2022/09/24 03:54:16;;;;;;;51.37;48.23;;;10.00;99.90;;;;;;5055495;28;20188;-81
2022/09/24 03:56:42;;;;;;;35.07;32.77;;;10.00;99.90;;;;;;5059395;28;20678;-81
2022/09/24 03:59:10;;;;;;;28.90;26.80;;;10.00;99.90;;;;;;5066224;28;20213;-80
2022/09/24 04:01:37;;;;;;;31.37;29.47;;;10.10;99.90;;;;;;5061785;28;20182;-81
2022/09/24 04:04:03;;;;;;;33.43;31.33;;;10.10;99.90;;;;;;5061779;28;20206;-79
2022/09/24 04:06:30;;;;;;;35.60;33.50;;;10.10;99.90;;;;;;5078797;22;20237;-80
2022/09/24 04:08:56;;;;;;;27.97;26.17;;;10.10;99.90;;;;;;5053370;28;20640;-81
2022/09/24 04:11:23;;;;;;;19.33;18.03;;;10.10;99.90;;;;;;5054540;28;20803;-80
2022/09/24 04:13:50;;;;;;;23.07;21.50;;;10.10;99.90;;;;;;5054512;28;20259;-79
2022/09/24 04:16:16;;;;;;;20.47;18.93;;;10.20;99.90;;;;;;5053661;28;20198;-81
2022/09/24 04:18:42;;;;;;;13.03;12.00;;;10.20;99.90;;;;;;5053774;28;20175;-80
2022/09/24 04:21:08;;;;;;;11.70;10.60;;;10.20;99.90;;;;;;5054601;28;20205;-81
2022/09/24 04:23:34;;;;;;;11.67;10.53;;;10.20;99.90;;;;;;5052878;28;20174;-81
2022/09/24 04:26:01;;;;;;;13.23;11.83;;;10.20;99.90;;;;;;5052648;28;20745;-80
2022/09/24 04:28:29;;;;;;;14.43;13.33;;;10.20;99.90;;;;;;5052272;28;20178;-80
2022/09/24 04:30:57;;;;;;;14.17;13.17;;;10.20;99.90;;;;;;5049720;28;20182;-82
2022/09/24 04:33:23;;;;;;;13.60;12.53;;;10.20;99.90;;;;;;5054974;28;20556;-81
2022/09/24 04:35:49;;;;;;;13.53;12.33;;;10.20;99.90;;;;;;5053925;28;20214;-82
2022/09/24 04:38:15;;;;;;;14.20;12.90;;;10.30;99.90;;;;;;5053809;28;20197;-81
2022/09/24 04:40:40;;;;;;;20.60;19.07;;;10.30;99.90;;;;;;5054249;28;20178;-81
2022/09/24 04:43:07;;;;;;;22.17;20.57;;;10.30;99.90;;;;;;5054899;28;20183;-81
2022/09/24 04:45:33;;;;;;;19.80;18.30;;;10.20;99.90;;;;;;5072616;28;20210;-79
2022/09/24 04:47:59;;;;;;;26.27;24.60;;;10.30;99.90;;;;;;5076114;28;20228;-80
2022/09/24 04:50:27;;;;;;;24.83;23.03;;;10.20;99.90;;;;;;5060834;28;20561;-80
2022/09/24 04:52:54;;;;;;;22.47;17.80;;;10.20;99.90;;;;;;5059097;28;20189;-79
2022/09/24 04:55:21;;;;;;;14.50;13.37;;;10.30;99.90;;;;;;5062815;28;20183;-80
2022/09/24 04:57:47;;;;;;;18.90;17.57;;;10.30;99.90;;;;;;5055628;28;20170;-81
2022/09/24 05:00:16;;;;;;;16.07;14.67;;;10.30;99.90;;;;;;5055111;28;20182;-80
2022/09/24 05:02:43;;;;;;;12.03;11.03;;;10.30;99.90;;;;;;5063761;28;20174;-79
2022/09/24 05:05:10;;;;;;;12.07;11.17;;;10.30;99.90;;;;;;5074566;28;20214;-79
2022/09/24 05:07:36;;;;;;;13.70;12.23;;;10.30;99.90;;;;;;5063623;28;20211;-69
2022/09/24 05:10:03;;;;;;;20.50;19.03;;;10.30;99.90;;;;;;5062014;28;20182;-69
2022/09/24 05:12:29;;;;;;;28.07;26.07;;;10.30;99.90;;;;;;5050700;28;20243;-70
2022/09/24 05:14:55;;;;;;;32.47;29.90;;;10.30;99.90;;;;;;5050799;28;20654;-69
2022/09/24 05:17:20;;;;;;;28.87;26.33;;;10.30;99.90;;;;;;5050298;28;20281;-69
2022/09/24 05:19:46;;;;;;;40.03;37.63;;;10.30;99.90;;;;;;5050694;28;20182;-68
2022/09/24 05:22:12;;;;;;;32.30;29.93;;;10.40;99.90;;;;;;5050180;28;20185;-70
2022/09/24 05:24:38;;;;;;;22.07;20.50;;;10.40;99.90;;;;;;5049860;28;20214;-70
2022/09/24 05:27:09;;;;;;;13.53;12.33;;;10.40;99.90;;;;;;5049870;28;20615;-69
2022/09/24 05:29:42;;;;;;;14.10;12.80;;;10.40;99.90;;;;;;5049221;28;20221;-75
2022/09/24 05:32:11;;;;;;;13.00;11.80;;;10.50;99.90;;;;;;5050733;28;20178;-75
2022/09/24 05:34:37;;;;;;;14.73;13.33;;;10.50;99.90;;;;;;5053889;28;20261;-75
2022/09/24 05:37:03;;;;;;;15.27;14.10;;;10.50;99.90;;;;;;5050642;28;20578;-75
2022/09/24 05:39:29;;;;;;;15.20;13.97;;;10.50;99.90;;;;;;5050205;28;20178;-75
2022/09/24 05:41:56;;;;;;;16.10;14.90;;;10.60;99.90;;;;;;5050173;28;20677;-74
2022/09/24 05:44:22;;;;;;;24.47;22.80;;;10.60;99.90;;;;;;5050227;28;20198;-74
2022/09/24 05:46:49;;;;;;;38.60;36.17;;;10.60;99.90;;;;;;5049924;28;20205;-75
2022/09/24 05:49:15;;;;;;;47.20;44.20;;;10.60;99.90;;;;;;5050366;28;20809;-75
2022/09/24 05:51:41;;;;;;;43.40;40.87;;;10.60;99.90;;;;;;5049647;28;20166;-75
2022/09/24 05:54:07;;;;;;;40.40;38.10;;;10.60;99.90;;;;;;5050039;28;20548;-75
2022/09/24 05:56:33;;;;;;;42.37;39.83;;;10.60;99.90;;;;;;5048823;28;20205;-75
2022/09/24 05:58:59;;;;;;;39.93;37.43;;;10.70;99.90;;;;;;5049869;28;20209;-75
2022/09/24 06:01:28;;;;;;;42.80;39.87;;;10.80;99.90;;;;;;5054599;28;20367;-73
2022/09/24 06:03:55;;;;;;;40.43;37.50;;;10.80;99.90;;;;;;5072195;28;20731;-75
2022/09/24 06:06:22;;;;;;;32.30;29.87;;;10.90;99.90;;;;;;5049685;28;20213;-75
2022/09/24 06:08:48;;;;;;;21.27;19.77;;;11.00;99.90;;;;;;5048526;28;20186;-75
2022/09/24 06:11:14;;;;;;;17.30;15.70;;;11.10;99.90;;;;;;5050611;28;20273;-74
2022/09/24 06:13:40;;;;;;;13.70;12.60;;;11.10;99.90;;;;;;5050119;28;20186;-74
2022/09/24 06:16:07;;;;;;;11.50;10.60;;;11.20;99.90;;;;;;5049996;28;20721;-74
2022/09/24 06:18:37;;;;;;;12.93;11.90;;;11.20;99.90;;;;;;5052279;28;20175;-75
2022/09/24 06:21:06;;;;;;;12.60;11.53;;;11.30;99.90;;;;;;5077498;28;20236;-74
2022/09/24 06:23:34;;;;;;;12.50;11.20;;;11.40;99.90;;;;;;5063470;28;20200;-74
2022/09/24 06:25:59;;;;;;;12.77;11.67;;;11.40;99.90;;;;;;5052194;28;20351;-75
2022/09/24 06:28:25;;;;;;;11.37;10.20;;;11.60;99.90;;;;;;5053407;28;20253;-74
2022/09/24 06:30:52;;;;;;;17.43;15.93;;;11.70;99.90;;;;;;5052830;28;20182;-74
2022/09/24 06:33:22;;;;;;;37.47;35.17;;;11.80;99.90;;;;;;5053453;28;20549;-74
2022/09/24 06:35:48;;;;;;;59.10;55.63;;;11.90;99.90;;;;;;5053186;28;20203;-74
2022/09/24 06:38:16;;;;;;;73.77;69.63;;;11.90;99.90;;;;;;5052954;28;20189;-74
2022/09/24 06:40:44;;;;;;;50.73;47.90;;;12.00;99.90;;;;;;5053404;28;20748;-74
2022/09/24 06:43:12;;;;;;;32.67;30.43;;;12.10;99.90;;;;;;5053706;28;20186;-74
2022/09/24 06:45:38;;;;;;;23.07;21.43;;;12.20;99.90;;;;;;5053545;28;20309;-73
2022/09/24 06:48:04;;;;;;;19.23;17.70;;;12.20;99.90;;;;;;5052797;28;20261;-74
2022/09/24 06:50:33;;;;;;;25.93;24.23;;;12.30;99.90;;;;;;5053316;28;20188;-74
2022/09/24 06:52:59;;;;;;;54.03;50.67;;;12.40;99.90;;;;;;5052257;28;20182;-74
2022/09/24 06:55:25;;;;;;;58.77;55.53;;;12.40;99.90;;;;;;5068633;28;20235;-75
2022/09/24 06:58:01;;;;;;;39.70;37.30;;;12.50;99.90;;;;;;5053110;28;20179;-74
2022/09/24 07:00:27;;;;;;;31.90;29.87;;;12.60;99.90;;;;;;5048850;28;20183;-74
2022/09/24 07:02:53;;;;;;;22.23;20.63;;;12.70;99.90;;;;;;5051750;28;20624;-74
2022/09/24 07:05:19;;;;;;;15.17;13.47;;;12.80;99.90;;;;;;5052832;28;20305;-74
2022/09/24 07:07:45;;;;;;;13.30;11.77;;;12.80;99.90;;;;;;5051381;28;20598;-74
2022/09/24 07:10:12;;;;;;;12.97;11.63;;;12.90;99.90;;;;;;5052508;28;20282;-74
2022/09/24 07:12:40;;;;;;;16.10;14.77;;;12.90;99.90;;;;;;5067547;28;20174;-74
2022/09/24 07:15:07;;;;;;;22.00;20.57;;;13.00;99.90;;;;;;5057907;28;20198;-75
2022/09/24 07:17:33;;;;;;;25.80;23.80;;;13.00;99.90;;;;;;5051542;28;20524;-74
2022/09/24 07:19:59;;;;;;;32.87;30.07;;;13.10;99.90;;;;;;5052901;28;20190;-75
2022/09/24 07:22:25;;;;;;;28.60;26.57;;;13.10;99.90;;;;;;5052509;28;20187;-75
2022/09/24 07:24:51;;;;;;;27.00;24.83;;;13.10;99.90;;;;;;5052297;28;20679;-75
2022/09/24 07:27:20;;;;;;;27.10;24.97;;;13.20;99.90;;;;;;5052307;28;20194;-75
2022/09/24 07:29:47;;;;;;;23.17;20.97;;;13.20;99.90;;;;;;5052190;28;20179;-75
2022/09/24 07:32:16;;;;;;;25.63;23.80;;;13.30;99.90;;;;;;5066136;28;20182;-75
2022/09/24 07:34:41;;;;;;;32.13;30.00;;;13.30;99.90;;;;;;5071371;28;20205;-75
2022/09/24 07:37:07;;;;;;;38.20;35.90;;;13.30;99.90;;;;;;5051425;28;20704;-74
2022/09/24 07:39:33;;;;;;;38.87;36.30;;;13.20;99.90;;;;;;5052257;28;20179;-74
2022/09/24 07:42:00;;;;;;;41.27;37.37;;;13.30;99.90;;;;;;5052555;28;20218;-75
2022/09/24 07:44:27;;;;;;;33.77;31.57;;;13.30;99.90;;;;;;5052556;28;20213;-75
2022/09/24 07:46:54;;;;;;;28.37;26.37;;;13.40;99.90;;;;;;5051557;28;20202;-75
2022/09/24 07:49:20;;;;;;;25.50;23.80;;;13.50;99.90;;;;;;5052328;28;20189;-76
2022/09/24 07:51:46;;;;;;;21.00;19.50;;;13.50;99.90;;;;;;5067831;28;20178;-76
2022/09/24 07:54:12;;;;;;;23.00;21.30;;;13.60;99.90;;;;;;5052007;28;20182;-75
2022/09/24 07:56:39;;;;;;;18.90;17.50;;;13.70;99.90;;;;;;5051993;28;20229;-76
2022/09/24 07:59:06;;;;;;;15.67;14.17;;;13.80;99.90;;;;;;5051409;28;20354;-74
2022/09/24 08:01:33;;;;;;;12.97;11.87;;;13.90;99.90;;;;;;5049947;28;20697;-74
2022/09/24 08:03:59;;;;;;;18.23;16.87;;;14.00;99.90;;;;;;5050800;28;20264;-74
2022/09/24 08:06:25;;;;;;;24.70;22.83;;;14.10;99.90;;;;;;5049654;28;20711;-75
2022/09/24 08:08:51;;;;;;;28.50;26.57;;;14.00;99.90;;;;;;5067336;28;20206;-75
2022/09/24 08:11:18;;;;;;;31.13;29.07;;;14.10;99.90;;;;;;5051317;28;20271;-75
2022/09/24 08:13:45;;;;;;;25.13;23.30;;;14.30;99.90;;;;;;5052158;28;20178;-76
2022/09/24 08:16:11;;;;;;;17.20;15.57;;;14.40;99.90;;;;;;5051766;28;20202;-76
2022/09/24 08:18:38;;;;;;;16.87;15.57;;;14.50;99.90;;;;;;5057868;28;20166;-75
2022/09/24 08:21:10;;;;;;;16.63;15.13;;;14.60;99.90;;;;;;5071167;28;20281;-75
2022/09/24 08:23:39;;;;;;;19.93;18.03;;;14.70;99.90;;;;;;5052175;28;20206;-76
2022/09/24 08:26:05;;;;;;;22.37;20.47;;;14.80;99.90;;;;;;5050636;28;20297;-75
2022/09/24 08:28:31;;;;;;;30.17;28.10;;;14.90;99.90;;;;;;5050313;28;20210;-76
2022/09/24 08:31:07;;;;;;;33.27;30.83;;;15.10;99.90;;;;;;5051163;28;20229;-75
2022/09/24 08:33:34;;;;;;;29.43;27.37;;;15.30;99.90;;;;;;5031913;28;20269;-75
2022/09/24 08:36:02;;;;;;;29.40;27.17;;;15.40;99.90;;;;;;5031960;28;20209;-75
2022/09/24 08:38:27;;;;;;;27.43;25.43;;;15.50;99.90;;;;;;5034167;28;20178;-76
2022/09/24 08:41:03;;;;;;;26.43;24.50;;;15.50;99.90;;;;;;5042501;28;20670;-75
2022/09/24 08:43:48;;;;;;;24.27;22.47;;;15.50;99.90;;;;;;5034106;28;20182;-75
2022/09/24 08:49:09;;;;;;;20.03;18.33;;;15.40;99.90;;;;;;5051160;28;20562;-76
2022/09/24 08:51:52;;;;;;;19.03;17.47;;;15.60;99.90;;;;;;5051435;28;20258;-75
2022/09/24 08:54:23;;;;;;;26.57;24.67;;;15.60;99.90;;;;;;5051709;28;20240;-76
2022/09/24 08:56:51;;;;;;;32.30;30.20;;;15.80;99.90;;;;;;5051415;28;20217;-78
2022/09/24 08:59:29;;;;;;;24.43;22.63;;;15.80;99.90;;;;;;5051584;28;20205;-76
2022/09/24 09:02:12;;;;;;;17.30;15.60;;;15.90;99.90;;;;;;5049289;28;20240;-75
2022/09/24 09:04:56;;;;;;;15.77;14.47;;;16.10;99.90;;;;;;5030313;28;20210;-76
2022/09/24 09:07:27;;;;;;;16.43;15.13;;;16.20;99.90;;;;;;5031592;28;20241;-76
2022/09/24 09:10:27;;;;;;;36.63;34.20;;;16.40;99.90;;;;;;5030582;28;20182;-75
2022/09/24 09:13:10;;;;;;;42.47;39.73;;;16.50;99.90;;;;;;5033567;28;20193;-75
2022/09/24 09:15:41;;;;;;;51.13;48.23;;;16.60;99.90;;;;;;5051239;28;20198;-73
2022/09/24 09:18:27;;;;;;;52.37;49.07;;;16.60;99.90;;;;;;5046858;28;20188;-72
2022/09/24 09:20:59;;;;;;;38.00;35.67;;;16.60;99.90;;;;;;5031807;28;20198;-72
2022/09/24 09:23:36;;;;;;;15.30;14.10;;;16.80;99.90;;;;;;5049857;28;20654;-73
2022/09/24 09:26:05;;;;;;;13.03;11.83;;;16.80;99.90;;;;;;5057894;28;20221;-72
2022/09/24 09:28:32;;;;;;;12.57;11.47;;;17.00;99.90;;;;;;5068078;28;20807;-72
2022/09/24 09:31:26;;;;;;;11.83;10.73;;;17.10;99.90;;;;;;5066361;28;20186;-72
2022/09/24 09:34:01;;;;;;;11.50;10.40;;;17.40;99.90;;;;;;5050250;28;20273;-72
2022/09/24 09:36:40;;;;;;;10.50;9.30;;;17.60;99.90;;;;;;5051118;28;20205;-73
2022/09/24 09:39:43;;;;;;;20.50;18.87;;;17.60;99.90;;;;;;5050100;28;20178;-72
2022/09/24 09:42:13;;;;;;;29.10;26.80;;;17.80;99.90;;;;;;5065353;28;20316;-72
2022/09/24 09:44:42;;;;;;;29.77;27.87;;;17.90;99.90;;;;;;5058690;28;20234;-72
2022/09/24 09:47:23;;;;;;;20.60;19.13;;;18.00;99.90;;;;;;5055255;28;20236;-74
2022/09/24 09:49:52;;;;;;;19.67;18.33;;;18.10;99.90;;;;;;5050711;28;20209;-75
2022/09/24 09:52:23;;;;;;;15.43;14.07;;;18.20;99.90;;;;;;5051724;28;20189;-75
2022/09/24 09:54:50;;;;;;;13.70;12.50;;;18.20;99.90;;;;;;5054251;28;20186;-75
2022/09/24 09:57:20;;;;;;;13.30;12.03;;;18.30;99.90;;;;;;5052707;28;20209;-74
2022/09/24 09:59:52;;;;;;;12.47;11.57;;;18.50;99.90;;;;;;5053957;28;20684;-75
2022/09/24 10:02:26;;;;;;;13.03;12.00;;;18.90;99.90;;;;;;5054295;28;20564;-74
2022/09/24 10:04:56;;;;;;;35.00;32.83;;;19.60;99.90;;;;;;5054327;28;20290;-75
2022/09/24 10:07:22;;;;;;;39.57;37.07;;;20.40;99.90;;;;;;5094701;22;20236;-81
2022/09/24 10:10:00;;;;;;;31.50;29.60;;;20.50;99.90;;;;;;5083261;28;20212;-80
2022/09/24 10:12:26;;;;;;;27.23;25.53;;;20.20;99.90;;;;;;5095183;28;20191;-78
2022/09/24 10:15:05;;;;;;;20.67;19.17;;;20.30;99.90;;;;;;5082380;28;20213;-80
2022/09/24 10:17:37;;;;;;;24.63;23.15;;;19.80;99.90;;;;;;5078238;28;20194;-80
2022/09/24 10:20:15;;;;;;;21.67;20.00;;;19.80;99.90;;;;;;5077460;28;20649;-80
2022/09/24 10:22:50;;;;;;;22.43;21.03;;;19.90;99.90;;;;;;5077372;28;20185;-80
2022/09/24 10:25:23;;;;;;;24.60;23.13;;;19.90;99.90;;;;;;5081261;28;20681;-80
2022/09/24 10:27:52;;;;;;;22.05;20.40;;;20.20;99.90;;;;;;5078493;28;20302;-82
2022/09/24 10:30:32;;;;;;;19.42;18.20;;;20.60;99.90;;;;;;5076326;28;20242;-80
2022/09/24 10:33:00;;;;;;;20.33;18.88;;;21.20;99.90;;;;;;5076286;28;20712;-81
2022/09/24 10:35:30;;;;;;;11.27;10.48;;;21.60;99.90;;;;;;5079077;28;20561;-80
2022/09/24 10:37:58;;;;;;;9.50;8.85;;;21.60;99.90;;;;;;5079593;28;20188;-81
2022/09/24 10:40:29;;;;;;;12.68;11.93;;;21.40;99.90;;;;;;5077335;28;20180;-80
2022/09/24 10:43:00;;;;;;;15.65;14.77;;;21.20;99.90;;;;;;5077156;28;20186;-80
2022/09/24 10:46:08;;;;;;;19.02;17.95;;;21.00;99.90;;;;;;5076445;28;20220;-79
2022/09/24 10:48:49;;;;;;;16.58;15.65;;;20.70;99.90;;;;;;5072590;28;20193;-80
2022/09/24 10:51:59;;;;;;;17.67;16.52;;;20.70;99.90;;;;;;5075643;28;20200;-81
2022/09/24 10:54:56;;;;;;;10.75;9.82;;;20.70;99.90;;;;;;5059161;28;20194;-80
2022/09/24 10:57:33;;;;;;;12.98;12.07;;;20.30;99.90;;;;;;5077142;28;20209;-80
2022/09/24 11:00:23;;;;;;;19.30;17.85;;;20.00;99.90;;;;;;5076509;28;20185;-80
2022/09/24 11:03:11;;;;;;;34.63;32.73;;;19.80;99.90;;;;;;5067547;28;20196;-80
2022/09/24 11:05:45;;;;;;;26.90;25.10;;;19.40;99.90;;;;;;5077225;28;20632;-80
2022/09/24 11:08:52;;;;;;;20.38;19.08;;;19.10;99.90;;;;;;5075165;28;20185;-80
2022/09/24 11:11:32;;;;;;;35.10;33.20;;;19.00;99.90;;;;;;5043879;28;20201;-79
2022/09/24 11:14:32;;;;;;;47.90;45.40;;;18.90;99.90;;;;;;5056737;28;20190;-80
2022/09/24 11:17:10;;;;;;;85.97;81.77;;;18.90;99.90;;;;;;5059364;28;20378;-79
2022/09/24 11:19:51;;;;;;;69.30;65.90;;;18.80;99.90;;;;;;5056393;28;20228;-79
2022/09/24 11:22:39;;;;;;;35.73;33.60;;;18.70;99.90;;;;;;5057053;28;20182;-80
2022/09/24 11:25:42;;;;;;;17.10;16.13;;;18.80;99.90;;;;;;5060407;28;20757;-80
2022/09/24 11:28:19;;;;;;;6.87;6.30;;;19.00;99.90;;;;;;5076173;28;20196;-80
2022/09/24 11:31:16;;;;;;;8.00;7.13;;;19.20;99.90;;;;;;5077429;28;20184;-79
2022/09/24 11:34:09;;;;;;;6.63;6.23;;;19.20;99.90;;;;;;5076478;28;20195;-80
2022/09/24 11:37:10;;;;;;;7.70;7.00;;;19.20;99.90;;;;;;5081160;28;20228;-80
2022/09/24 11:40:00;;;;;;;8.93;6.97;;;19.30;99.90;;;;;;5060600;28;20175;-79
2022/09/24 11:42:57;;;;;;;8.37;7.87;;;19.30;99.90;;;;;;5056203;28;20569;-80
2022/09/24 11:45:43;;;;;;;7.93;7.33;;;19.30;99.90;;;;;;5058881;28;20268;-81
2022/09/24 11:48:30;;;;;;;7.80;7.27;;;19.40;99.90;;;;;;5056669;28;20182;-80
2022/09/24 11:51:11;;;;;;;8.40;7.70;;;19.50;99.90;;;;;;5055431;28;20182;-80
2022/09/24 11:53:40;;;;;;;10.03;9.43;;;19.50;99.90;;;;;;5054948;28;20182;-80
2022/09/24 11:56:31;;;;;;;10.10;9.33;;;19.30;99.90;;;;;;5057134;28;20206;-79
2022/09/24 11:59:35;;;;;;;10.23;9.40;;;19.30;99.90;;;;;;5054921;28;20527;-79
2022/09/24 12:02:18;;;;;;;9.57;8.77;;;19.50;99.90;;;;;;5053830;28;20654;-80
2022/09/24 12:04:55;;;;;;;9.27;8.63;;;19.60;99.90;;;;;;5054284;28;20217;-80
2022/09/24 12:07:43;;;;;;;10.68;9.98;;;19.70;99.90;;;;;;5070774;28;20701;-78
2022/09/24 12:10:29;;;;;;;21.10;20.08;;;19.80;99.90;;;;;;5073206;28;20609;-79
2022/09/24 12:13:23;;;;;;;48.35;45.88;;;20.00;99.90;;;;;;5074616;28;20201;-80
2022/09/24 12:15:56;;;;;;;42.53;40.30;;;20.30;99.90;;;;;;5063479;28;20260;-80
2022/09/24 12:18:28;;;;;;;55.85;52.92;;;20.30;99.90;;;;;;5074343;28;20189;-81
2022/09/24 12:21:09;;;;;;;52.17;49.50;;;20.30;99.90;;;;;;5076227;28;20674;-80
2022/09/24 12:23:44;;;;;;;41.88;39.70;;;20.30;99.90;;;;;;5076854;28;20181;-80
2022/09/24 12:26:15;;;;;;;21.73;20.48;;;20.10;99.90;;;;;;5075594;28;20215;-79
2022/09/24 12:35:07;;;;;;;77.07;73.32;;;19.80;99.90;;;;;;5078140;28;20181;-80
2022/09/24 12:37:38;;;;;;;68.72;65.35;;;19.70;99.90;;;;;;5075289;28;20226;-80
2022/09/24 12:40:10;;;;;;;74.90;71.13;;;19.80;99.90;;;;;;5075564;28;20265;-80
2022/09/24 12:42:45;;;;;;;53.47;50.85;;;20.10;99.90;;;;;;5074473;28;20188;-80
2022/09/24 12:45:16;;;;;;;26.30;24.97;;;20.20;99.90;;;;;;5074806;28;20212;-80
2022/09/24 12:47:58;;;;;;;20.45;19.42;;;20.30;99.90;;;;;;5074114;28;20201;-80
2022/09/24 12:50:31;;;;;;;17.63;16.60;;;19.90;99.90;;;;;;5073516;28;20626;-80
2022/09/24 12:52:57;;;;;;;18.00;17.17;;;19.50;99.90;;;;;;5073808;28;20189;-79
2022/09/24 12:55:28;;;;;;;29.40;28.00;;;19.20;99.90;;;;;;5073559;28;20205;-80
2022/09/24 12:57:58;;;;;;;32.22;30.73;;;19.20;99.90;;;;;;5075092;28;20276;-81
2022/09/24 13:00:44;;;;;;;30.73;29.23;;;19.20;99.90;;;;;;5074695;28;20184;-80
2022/09/24 13:03:34;;;;;;;45.53;43.40;;;19.00;99.90;;;;;;5072737;28;20185;-80
2022/09/24 13:06:00;;;;;;;67.20;64.00;;;18.80;99.90;;;;;;5072243;28;20304;-79
2022/09/24 13:08:38;;;;;;;81.33;77.40;;;18.80;99.90;;;;;;5072689;28;20540;-80
2022/09/24 13:11:36;;;;;;;63.60;60.50;;;18.60;99.90;;;;;;5072708;28;20193;-81